Time;durP1;ratioP1;P1;durP2;ratioP2;P2;SDS_P1;SDS_P2;PMS_P1;PMS_P2;Temp;Humidity;BMP_temperature;BMP_pressure;BME280_temperature;BME280_humidity;BME280_pressure;Samples;Min_cycle;Max_cycle;Signal;HPM_P1;HPM_P2
2022/04/09 00:00:46;;;;;;;5.28;1.77;;;;;;;21.01;33.97;100081.78;5067463;28;22165;-74
2022/04/09 00:03:12;;;;;;;5.68;2.10;;;;;;;21.00;34.26;100083.59;5036287;28;20040;-74
2022/04/09 00:05:37;;;;;;;4.10;1.83;;;;;;;20.96;34.36;100084.22;5071643;28;20051;-74
2022/04/09 00:08:04;;;;;;;5.00;1.60;;;;;;;20.91;34.31;100082.19;5036423;28;20039;-74
2022/04/09 00:10:29;;;;;;;4.50;1.70;;;;;;;20.91;34.28;100081.38;5073940;28;20048;-74
2022/04/09 00:12:55;;;;;;;3.03;1.30;;;;;;;20.90;34.26;100079.75;5034124;28;20037;-74
2022/04/09 00:15:20;;;;;;;3.95;1.73;;;;;;;20.89;34.32;100089.53;5076421;28;20036;-74
2022/04/09 00:17:47;;;;;;;2.83;1.50;;;;;;;20.85;34.34;100092.78;5039586;28;20165;-74
2022/04/09 00:20:14;;;;;;;2.88;1.38;;;;;;;20.86;34.26;100089.13;5051752;28;20044;-75
2022/04/09 00:22:40;;;;;;;2.97;1.60;;;;;;;20.77;34.28;100085.84;5023046;28;20171;-73
2022/04/09 00:25:07;;;;;;;4.53;1.90;;;;;;;20.80;34.51;100088.91;5075765;28;20999;-73
2022/04/09 00:27:34;;;;;;;2.63;1.30;;;;;;;20.78;34.54;100100.72;5042562;28;20035;-73
2022/04/09 00:29:59;;;;;;;3.75;1.60;;;;;;;20.76;34.33;100111.50;5068318;28;20036;-73
2022/04/09 00:32:25;;;;;;;3.60;1.27;;;;;;;20.73;34.38;100103.97;5043412;28;20147;-71
2022/04/09 00:34:50;;;;;;;2.35;1.50;;;;;;;20.69;34.58;100102.75;5039838;28;20079;-73
2022/04/09 00:37:16;;;;;;;2.53;1.30;;;;;;;20.61;34.60;100102.94;5075635;28;20047;-73
2022/04/09 00:39:42;;;;;;;3.20;1.45;;;;;;;20.70;34.53;100120.25;5035844;28;20045;-73
2022/04/09 00:42:15;;;;;;;4.30;1.30;;;;;;;20.71;34.44;100118.44;5055874;28;20039;-74
2022/04/09 00:44:41;;;;;;;3.60;1.70;;;;;;;20.65;34.56;100127.19;5036735;28;20143;-73
2022/04/09 00:47:07;;;;;;;1.92;1.30;;;;;;;20.68;34.45;100132.06;5070116;28;20027;-73
2022/04/09 00:49:35;;;;;;;2.78;1.58;;;;;;;20.63;34.59;100130.00;5015821;28;20105;-72
2022/04/09 00:52:03;;;;;;;3.42;1.25;;;;;;;20.64;34.39;100139.56;5075862;28;20119;-73
2022/04/09 00:54:31;;;;;;;3.25;1.45;;;;;;;20.64;34.64;100147.50;5021921;28;20032;-72
2022/04/09 00:57:07;;;;;;;3.17;1.30;;;;;;;20.60;34.62;100158.69;5052005;28;20538;-73
2022/04/09 00:59:38;;;;;;;3.60;1.80;;;;;;;20.59;34.64;100152.59;5038043;28;20036;-73
2022/04/09 01:02:04;;;;;;;3.63;1.52;;;;;;;20.58;34.68;100158.88;5051141;28;20662;-73
2022/04/09 01:04:31;;;;;;;2.75;1.40;;;;;;;20.56;34.71;100163.56;5033604;28;20490;-73
2022/04/09 01:06:59;;;;;;;4.28;1.40;;;;;;;20.59;34.54;100170.28;5057562;28;20056;-73
2022/04/09 01:09:24;;;;;;;2.28;1.10;;;;;;;20.57;34.53;100159.91;5036925;28;20087;-74
2022/04/09 01:11:51;;;;;;;3.03;1.30;;;;;;;20.52;34.72;100162.34;5067362;28;20032;-74
2022/04/09 01:14:18;;;;;;;2.70;1.50;;;;;;;20.53;34.62;100166.63;5026679;28;20050;-74
2022/04/09 01:16:44;;;;;;;2.13;1.33;;;;;;;20.47;34.77;100165.59;5059003;28;20047;-74
2022/04/09 01:19:10;;;;;;;3.28;1.25;;;;;;;20.48;34.66;100177.00;5023497;28;20529;-73
2022/04/09 01:21:39;;;;;;;2.78;1.45;;;;;;;20.47;34.70;100178.00;5054051;28;20058;-73
2022/04/09 01:24:05;;;;;;;3.70;1.38;;;;;;;20.49;34.70;100189.19;5024587;28;20684;-74
2022/04/09 01:26:34;;;;;;;3.08;1.13;;;;;;;20.46;34.90;100193.03;5060804;28;20051;-74
2022/04/09 01:29:01;;;;;;;2.35;1.15;;;;;;;20.44;34.62;100192.41;5022990;28;20117;-73
2022/04/09 01:31:26;;;;;;;3.60;1.38;;;;;;;20.39;34.54;100194.81;5049046;28;20569;-73
2022/04/09 01:33:52;;;;;;;2.58;1.38;;;;;;;20.36;34.74;100203.16;5033127;28;20167;-73
2022/04/09 01:36:17;;;;;;;2.28;1.30;;;;;;;20.39;34.81;100207.22;5026067;28;20860;-74
2022/04/09 01:38:43;;;;;;;2.05;1.23;;;;;;;20.40;34.66;100214.97;5068803;28;20044;-74
2022/04/09 01:41:09;;;;;;;3.90;1.52;;;;;;;20.40;34.72;100222.91;5019355;28;20033;-74
2022/04/09 01:43:49;;;;;;;3.67;1.40;;;;;;;20.33;34.77;100226.53;5056189;28;20630;-74
2022/04/09 01:46:14;;;;;;;1.80;1.10;;;;;;;20.34;34.84;100228.16;5018428;28;20032;-74
2022/04/09 01:48:41;;;;;;;2.25;1.10;;;;;;;20.29;34.77;100227.91;5067242;28;20102;-74
2022/04/09 01:51:07;;;;;;;3.17;1.40;;;;;;;20.34;34.62;100244.03;5021885;28;20732;-75
2022/04/09 01:53:34;;;;;;;3.03;1.48;;;;;;;20.34;34.74;100247.50;5041577;28;20036;-74
2022/04/09 01:56:00;;;;;;;2.58;1.55;;;;;;;20.34;34.73;100244.03;5018957;28;20039;-74
2022/04/09 01:58:29;;;;;;;2.53;1.17;;;;;;;20.33;34.85;100252.97;5059536;28;20466;-75
2022/04/09 02:00:58;;;;;;;3.17;1.42;;;;;;;20.25;34.85;100250.47;5017200;28;20482;-75
2022/04/09 02:03:26;;;;;;;1.58;1.02;;;;;;;20.25;34.88;100253.94;5057226;28;20023;-74
2022/04/09 02:05:52;;;;;;;1.33;0.95;;;;;;;20.25;34.80;100255.78;5026323;28;20089;-72
2022/04/09 02:08:18;;;;;;;1.88;1.05;;;;;;;20.23;34.86;100250.69;5074890;28;20085;-73
2022/04/09 02:10:43;;;;;;;1.80;1.13;;;;;;;20.24;34.94;100260.25;5022388;28;20509;-73
2022/04/09 02:13:13;;;;;;;2.47;1.10;;;;;;;20.24;34.92;100265.53;5051902;28;20040;-73
2022/04/09 02:15:39;;;;;;;1.80;1.02;;;;;;;20.21;34.95;100265.94;5017150;28;20039;-73
2022/04/09 02:18:05;;;;;;;2.75;1.35;;;;;;;20.23;34.92;100275.28;5050839;28;20044;-73
2022/04/09 02:20:32;;;;;;;1.92;0.95;;;;;;;20.11;34.96;100262.84;5027221;28;20138;-73
2022/04/09 02:22:57;;;;;;;3.45;1.13;;;;;;;20.17;34.92;100272.63;5050135;28;20043;-73
2022/04/09 02:25:23;;;;;;;1.70;0.95;;;;;;;20.17;34.98;100281.38;5037917;28;20032;-73
2022/04/09 02:27:48;;;;;;;2.58;1.02;;;;;;;20.16;34.98;100284.22;5072776;28;20449;-74
2022/04/09 02:30:21;;;;;;;2.40;1.17;;;;;;;20.18;35.05;100290.94;5027526;28;20036;-74
2022/04/09 02:32:53;;;;;;;2.10;1.17;;;;;;;20.15;35.05;100288.69;5053283;28;20040;-74
2022/04/09 02:35:26;;;;;;;1.70;1.05;;;;;;;20.13;35.02;100293.34;5020665;28;20039;-75
2022/04/09 02:37:52;;;;;;;1.90;0.80;;;;;;;20.15;34.92;100304.53;5070111;28;20115;-74
2022/04/09 02:40:20;;;;;;;1.42;1.00;;;;;;;20.13;35.04;100303.13;5016562;28;20029;-74
2022/04/09 02:42:46;;;;;;;1.85;1.00;;;;;;;20.09;34.94;100302.66;5051690;28;20032;-74
2022/04/09 02:45:12;;;;;;;0.98;0.80;;;;;;;20.07;35.19;100301.22;5018138;28;20855;-74
2022/04/09 02:47:39;;;;;;;2.45;1.20;;;;;;;20.09;35.03;100307.94;5046298;28;20067;-74
2022/04/09 02:50:10;;;;;;;2.70;1.42;;;;;;;20.04;35.14;100306.91;5004056;28;20024;-73
2022/04/09 02:52:38;;;;;;;3.13;1.40;;;;;;;20.08;35.06;100314.25;5054244;28;20061;-73
2022/04/09 02:55:06;;;;;;;1.45;0.80;;;;;;;20.06;35.05;100328.66;5020392;28;20062;-73
2022/04/09 02:57:34;;;;;;;2.35;0.98;;;;;;;20.01;35.13;100323.97;5049969;28;20038;-73
2022/04/09 03:00:01;;;;;;;2.30;1.00;;;;;;;20.03;34.95;100345.72;5018429;28;21254;-73
2022/04/09 03:02:27;;;;;;;3.67;1.17;;;;;;;20.03;35.08;100342.28;5072626;28;20523;-73
2022/04/09 03:04:55;;;;;;;2.00;0.95;;;;;;;20.04;35.25;100331.50;5021358;28;26591;-73
2022/04/09 03:07:21;;;;;;;2.50;1.25;;;;;;;20.01;35.15;100336.38;5071237;28;20100;-74
2022/04/09 03:09:48;;;;;;;2.67;1.08;;;;;;;20.00;35.12;100340.84;5022567;28;20069;-73
2022/04/09 03:12:13;;;;;;;1.95;1.35;;;;;;;19.99;35.10;100336.56;5050362;28;20043;-74
2022/04/09 03:14:39;;;;;;;3.10;1.15;;;;;;;19.99;35.10;100338.38;5055327;28;20511;-73
2022/04/09 03:17:05;;;;;;;1.85;1.42;;;;;;;19.97;35.14;100340.41;5017352;28;20044;-74
2022/04/09 03:19:30;;;;;;;1.75;1.05;;;;;;;19.92;35.28;100343.59;5052245;28;20040;-73
2022/04/09 03:21:57;;;;;;;3.60;1.30;;;;;;;19.95;35.27;100353.00;5017701;28;20036;-74
2022/04/09 03:24:23;;;;;;;1.45;1.10;;;;;;;19.92;35.30;100354.16;5053059;28;20050;-74
2022/04/09 03:26:49;;;;;;;2.50;1.00;;;;;;;19.94;35.07;100365.41;5004307;28;20363;-74
2022/04/09 03:29:15;;;;;;;2.38;1.02;;;;;;;19.91;35.19;100371.84;5067720;28;20086;-74
2022/04/09 03:31:42;;;;;;;2.47;1.15;;;;;;;19.86;35.18;100365.50;5018208;28;20093;-74
2022/04/09 03:34:10;;;;;;;1.33;0.82;;;;;;;19.88;35.32;100371.41;5054350;28;20039;-74
2022/04/09 03:36:38;;;;;;;2.40;1.17;;;;;;;19.84;35.37;100373.63;5004014;28;20398;-74
2022/04/09 03:39:05;;;;;;;1.45;1.33;;;;;;;19.83;35.25;100374.66;5048390;28;20460;-74
2022/04/09 03:41:31;;;;;;;3.85;1.27;;;;;;;19.77;35.05;100362.22;5020838;28;20032;-74
2022/04/09 03:44:00;;;;;;;1.85;1.00;;;;;;;19.76;35.38;100379.06;5067993;28;20063;-75
2022/04/09 03:46:33;;;;;;;4.45;1.50;;;;;;;19.72;35.45;100383.06;5014854;28;20042;-74
2022/04/09 03:49:03;;;;;;;2.22;0.82;;;;;;;19.69;35.53;100383.44;5047179;28;20470;-74
2022/04/09 03:51:29;;;;;;;2.33;1.50;;;;;;;19.69;35.51;100380.81;5016282;28;20085;-74
2022/04/09 03:53:56;;;;;;;1.17;1.00;;;;;;;19.65;35.65;100390.13;5037622;28;20040;-74
2022/04/09 03:56:24;;;;;;;2.53;0.77;;;;;;;19.63;35.63;100393.97;5019100;28;20032;-74
2022/04/09 03:58:50;;;;;;;2.58;1.17;;;;;;;19.59;35.66;100391.72;5063877;28;20043;-74
2022/04/09 04:01:18;;;;;;;2.17;0.90;;;;;;;19.45;35.79;100367.97;5027301;28;20040;-74
2022/04/09 04:03:48;;;;;;;1.75;1.00;;;;;;;19.56;35.86;100394.69;5055551;28;20036;-74
2022/04/09 04:06:14;;;;;;;2.95;1.10;;;;;;;19.57;35.74;100398.19;5040803;28;22035;-73
2022/04/09 04:08:40;;;;;;;1.88;1.17;;;;;;;19.54;35.77;100398.53;5059501;28;20031;-74
2022/04/09 04:11:10;;;;;;;1.25;0.60;;;;;;;19.51;35.70;100396.25;5031669;28;20036;-73
2022/04/09 04:13:38;;;;;;;2.15;1.00;;;;;;;19.52;35.70;100401.34;5071106;28;20028;-74
2022/04/09 04:16:06;;;;;;;2.47;1.00;;;;;;;19.50;35.70;100402.53;5018872;28;20042;-73
2022/04/09 04:18:36;;;;;;;2.15;1.25;;;;;;;19.51;35.80;100407.63;5053939;28;20493;-73
2022/04/09 04:21:03;;;;;;;1.52;1.02;;;;;;;19.52;35.73;100405.81;5019965;28;20137;-73
2022/04/09 04:23:29;;;;;;;2.35;1.42;;;;;;;19.53;35.81;100407.44;5040516;28;20032;-74
2022/04/09 04:26:03;;;;;;;3.47;1.00;;;;;;;19.54;35.83;100417.03;5023885;28;20990;-73
2022/04/09 04:28:29;;;;;;;2.17;1.00;;;;;;;19.55;35.68;100414.19;5055777;28;20513;-74
2022/04/09 04:30:55;;;;;;;1.52;0.85;;;;;;;19.53;35.70;100413.53;5020342;28;20763;-73
2022/04/09 04:33:21;;;;;;;1.73;0.85;;;;;;;19.58;35.63;100424.41;5062052;28;20039;-72
2022/04/09 04:35:53;;;;;;;1.33;0.88;;;;;;;19.60;35.73;100432.16;5033558;28;20754;-73
2022/04/09 04:38:19;;;;;;;1.50;1.00;;;;;;;19.56;35.81;100436.97;5033860;28;20074;-74
2022/04/09 04:40:47;;;;;;;2.13;1.13;;;;;;;19.52;35.86;100430.38;5059738;28;20778;-73
2022/04/09 04:43:13;;;;;;;2.55;1.00;;;;;;;19.85;35.38;100443.16;5021703;28;20035;-74
2022/04/09 04:45:40;;;;;;;1.77;1.13;;;;;;;20.59;34.71;100448.03;5070922;28;20036;-74
2022/04/09 04:48:10;;;;;;;2.10;0.77;;;;;;;21.31;33.23;100445.78;5025067;28;20040;-74
2022/04/09 04:50:40;;;;;;;3.58;0.90;;;;;;;21.98;32.53;100452.88;5058769;28;20068;-74
2022/04/09 04:53:09;;;;;;;2.28;1.20;;;;;;;22.34;31.93;100450.88;5017813;28;20651;-74
2022/04/09 04:55:40;;;;;;;3.72;1.08;;;;;;;22.56;31.70;100450.44;5057920;28;20039;-74
2022/04/09 04:58:07;;;;;;;1.10;0.70;;;;;;;22.55;31.14;100446.16;5039971;28;20028;-74
2022/04/09 05:00:42;;;;;;;0.98;0.77;;;;;;;22.50;31.42;100451.28;5054735;28;20027;-74
2022/04/09 05:03:12;;;;;;;;;;;;;;;22.36;31.76;100475.34;5018109;28;20036;-74
2022/04/09 05:05:49;;;;;;;1.60;0.77;;;;;;;22.23;32.06;100479.63;5036678;28;19923;-74
2022/04/09 05:08:16;;;;;;;1.83;0.90;;;;;;;22.10;32.51;100481.50;5020223;28;20032;-74
2022/04/09 05:10:42;;;;;;;2.47;0.95;;;;;;;21.98;32.60;100481.22;5052781;28;20489;-74
2022/04/09 05:13:08;;;;;;;1.27;0.88;;;;;;;21.83;32.69;100480.59;5025149;28;20676;-74
2022/04/09 05:15:36;;;;;;;1.73;1.17;;;;;;;21.74;32.87;100484.44;5056218;28;20040;-74
2022/04/09 05:18:02;;;;;;;1.45;0.60;;;;;;;21.66;33.44;100486.25;5022310;28;20426;-74
2022/04/09 05:20:30;;;;;;;1.15;0.90;;;;;;;21.80;32.94;100483.66;5054660;28;20040;-74
2022/04/09 05:22:59;;;;;;;2.20;0.88;;;;;;;22.29;32.16;100489.44;5019203;28;20041;-74
2022/04/09 05:25:26;;;;;;;2.03;0.82;;;;;;;22.74;31.47;100486.94;5058151;28;20047;-74
2022/04/09 05:27:54;;;;;;;2.10;0.80;;;;;;;23.00;31.36;100498.59;5014450;28;20094;-74
2022/04/09 05:30:30;;;;;;;1.48;0.90;;;;;;;23.11;30.81;100503.22;5056968;28;20066;-74
2022/04/09 05:32:56;;;;;;;2.05;1.02;;;;;;;23.00;31.11;100509.19;5035861;28;20194;-74
2022/04/09 05:35:22;;;;;;;1.80;0.90;;;;;;;22.85;31.61;100507.59;5055989;28;20052;-73
2022/04/09 05:37:52;;;;;;;;;;;;;;;22.66;31.75;100511.06;5018993;28;20132;-74
2022/04/09 05:40:22;;;;;;;1.77;0.93;;;;;;;22.49;31.97;100504.53;5058099;28;19930;-74
2022/04/09 05:42:48;;;;;;;1.88;0.85;;;;;;;22.41;32.13;100512.69;5016928;28;20495;-74
2022/04/09 05:45:15;;;;;;;1.77;0.95;;;;;;;22.31;32.29;100519.25;5048980;28;20062;-74
2022/04/09 05:47:46;;;;;;;1.55;0.90;;;;;;;22.19;32.66;100528.81;5015639;28;20784;-74
2022/04/09 05:50:15;;;;;;;2.05;0.75;;;;;;;22.02;32.74;100515.09;5052424;28;20042;-74
2022/04/09 05:52:42;;;;;;;2.38;0.73;;;;;;;21.99;32.71;100530.56;5016476;28;20036;-74
2022/04/09 05:55:10;;;;;;;3.20;0.80;;;;;;;21.86;33.04;100538.50;5049468;28;20043;-74
2022/04/09 05:57:36;;;;;;;1.35;1.10;;;;;;;21.59;33.33;100513.75;5022162;28;20039;-74
2022/04/09 06:00:06;;;;;;;1.55;0.85;;;;;;;21.62;33.73;100543.31;5054334;28;20043;-74
2022/04/09 06:02:41;;;;;;;2.42;1.10;;;;;;;21.41;33.67;100538.13;5036950;28;20075;-74
2022/04/09 06:05:10;;;;;;;3.60;1.05;;;;;;;21.32;33.80;100563.97;5057952;28;20405;-74
2022/04/09 06:07:37;;;;;;;1.52;0.75;;;;;;;21.22;34.06;100603.19;5015783;28;20048;-74
2022/04/09 06:10:08;;;;;;;2.67;1.10;;;;;;;21.15;34.13;100601.50;5054741;28;20118;-74
2022/04/09 06:12:35;;;;;;;2.95;0.73;;;;;;;21.08;34.21;100598.81;5022613;28;20498;-74
2022/04/09 06:15:09;;;;;;;0.47;0.45;;;;;;;21.19;34.12;100587.72;5051447;28;20489;-74
2022/04/09 06:17:47;;;;;;;1.15;0.70;;;;;;;21.59;33.22;100582.66;5024156;28;20035;-74
2022/04/09 06:20:13;;;;;;;1.33;0.90;;;;;;;21.99;32.77;100586.25;5038887;28;20379;-74
2022/04/09 06:22:41;;;;;;;1.20;1.10;;;;;;;22.14;32.22;100586.13;5043248;28;20035;-74
2022/04/09 06:25:08;;;;;;;1.10;0.60;;;;;;;22.22;32.37;100602.66;5056552;28;20429;-74
2022/04/09 06:27:39;;;;;;;2.60;1.30;;;;;;;22.13;32.44;100606.53;5028160;28;20044;-74
2022/04/09 06:30:05;;;;;;;1.45;0.70;;;;;;;22.00;32.47;100609.09;5067554;28;20024;-74
2022/04/09 06:32:33;;;;;;;2.25;0.90;;;;;;;21.87;33.06;100593.97;5027433;28;20048;-74
2022/04/09 06:34:58;;;;;;;3.15;1.10;;;;;;;21.73;33.25;100604.72;5049822;28;20374;-74
2022/04/09 06:37:25;;;;;;;1.23;0.65;;;;;;;21.64;33.51;100601.41;5025643;28;20979;-74
2022/04/09 06:39:52;;;;;;;2.42;1.00;;;;;;;21.56;33.54;100609.53;5038361;28;20036;-75
2022/04/09 06:42:19;;;;;;;2.28;1.05;;;;;;;21.44;33.56;100611.91;5052127;28;20046;-74
2022/04/09 06:45:08;;;;;;;3.33;1.08;;;;;;;21.22;34.07;100610.34;5028838;28;20374;-74
2022/04/09 06:47:54;;;;;;;0.57;0.43;;;;;;;21.15;34.17;100607.63;5073682;28;20123;-69
2022/04/09 06:50:20;;;;;;;1.98;0.90;;;;;;;21.16;34.49;100621.69;5024725;28;20040;-73
2022/04/09 06:52:46;;;;;;;1.08;0.80;;;;;;;21.13;34.32;100623.69;5053715;28;20043;-73
2022/04/09 06:55:27;;;;;;;2.20;1.00;;;;;;;21.15;34.57;100630.63;5026951;28;20307;-73
2022/04/09 06:58:00;;;;;;;2.00;0.82;;;;;;;21.15;34.54;100651.81;5056166;28;20440;-74
2022/04/09 07:00:29;;;;;;;2.38;0.82;;;;;;;21.09;34.43;100643.63;5025612;28;20973;-73
2022/04/09 07:02:54;;;;;;;2.25;1.08;;;;;;;21.10;34.39;100645.28;5052608;28;20036;-73
2022/04/09 07:05:20;;;;;;;1.40;0.70;;;;;;;21.41;34.25;100642.25;5043498;28;20044;-72
2022/04/09 07:07:49;;;;;;;1.60;0.60;;;;;;;21.84;33.20;100650.03;5052387;28;20075;-74
2022/04/09 07:10:15;;;;;;;2.67;0.98;;;;;;;22.20;33.00;100655.09;5035723;28;20071;-73
2022/04/09 07:12:41;;;;;;;2.60;0.88;;;;;;;22.27;32.45;100658.59;5072007;28;20428;-73
2022/04/09 07:15:07;;;;;;;3.35;1.02;;;;;;;22.27;32.34;100652.47;5043187;28;20036;-73
2022/04/09 07:17:33;;;;;;;3.00;1.00;;;;;;;22.20;33.09;100654.28;5069225;28;20040;-73
2022/04/09 07:19:59;;;;;;;2.20;1.08;;;;;;;22.13;33.12;100648.97;5045046;28;20048;-72
2022/04/09 07:22:25;;;;;;;2.67;1.10;;;;;;;22.14;32.98;100658.56;5073015;28;20096;-73
2022/04/09 07:24:51;;;;;;;0.98;0.68;;;;;;;22.06;33.08;100664.00;5041443;28;20032;-73
2022/04/09 07:27:16;;;;;;;1.88;0.98;;;;;;;22.09;33.16;100668.13;5073009;28;20406;-73
2022/04/09 07:29:42;;;;;;;2.55;0.90;;;;;;;21.94;33.58;100657.63;5045499;28;20045;-73
2022/04/09 07:32:08;;;;;;;2.70;0.80;;;;;;;21.96;33.63;100677.63;5073720;28;20498;-74
2022/04/09 07:34:33;;;;;;;3.13;1.08;;;;;;;21.76;33.67;100681.19;5043066;28;20042;-74
2022/04/09 07:36:59;;;;;;;2.13;0.82;;;;;;;21.56;34.14;100679.25;5075206;28;20048;-73
2022/04/09 07:39:24;;;;;;;1.95;1.10;;;;;;;21.37;34.67;100680.75;5031097;28;20081;-73
2022/04/09 07:41:50;;;;;;;1.08;0.80;;;;;;;21.24;34.65;100687.75;5074989;28;20028;-74
2022/04/09 07:44:16;;;;;;;2.75;1.08;;;;;;;21.26;34.76;100685.75;5075273;28;20040;-74
2022/04/09 07:46:41;;;;;;;1.65;0.90;;;;;;;21.14;34.87;100674.81;5046581;28;20040;-74
2022/04/09 07:49:07;;;;;;;1.70;0.80;;;;;;;21.21;34.99;100685.50;5076981;28;21904;-74
2022/04/09 07:51:32;;;;;;;3.47;0.98;;;;;;;21.27;34.86;100697.97;5046818;28;20129;-69
2022/04/09 07:53:58;;;;;;;2.60;1.10;;;;;;;21.33;34.64;100708.63;5073059;28;20409;-70
2022/04/09 07:56:23;;;;;;;4.75;1.10;;;;;;;21.45;34.50;100713.41;5049652;28;20036;-70
2022/04/09 07:58:49;;;;;;;1.95;1.05;;;;;;;21.68;34.18;100724.56;5076828;28;20055;-71
2022/04/09 08:01:14;;;;;;;2.15;1.02;;;;;;;21.70;33.88;100719.88;5049568;28;20040;-70
2022/04/09 08:03:40;;;;;;;2.38;0.95;;;;;;;21.68;33.94;100728.03;5075272;28;20055;-71
2022/04/09 08:06:05;;;;;;;1.60;0.80;;;;;;;21.50;33.89;100727.69;5051506;28;20081;-69
2022/04/09 08:08:32;;;;;;;1.55;1.10;;;;;;;21.44;34.20;100730.31;5074906;28;20517;-70
2022/04/09 08:10:58;;;;;;;2.75;1.38;;;;;;;21.30;34.41;100729.38;5046588;28;20858;-69
2022/04/09 08:13:23;;;;;;;2.88;1.00;;;;;;;21.21;34.53;100726.03;5074948;28;20067;-69
2022/04/09 08:15:49;;;;;;;1.83;0.80;;;;;;;21.23;34.70;100749.66;5043178;28;20040;-70
2022/04/09 08:18:15;;;;;;;1.23;0.88;;;;;;;21.23;35.08;100736.44;5074813;28;20043;-69
2022/04/09 08:20:41;;;;;;;3.28;1.00;;;;;;;21.11;34.57;100722.88;5048967;28;20040;-69
2022/04/09 08:23:06;;;;;;;4.88;1.10;;;;;;;21.21;34.67;100736.63;5080829;28;20046;-69
2022/04/09 08:25:32;;;;;;;4.15;1.05;;;;;;;21.16;34.68;100743.47;5047883;28;20492;-70
2022/04/09 08:27:57;;;;;;;2.00;1.08;;;;;;;21.09;34.84;100759.31;5079116;28;20130;-69
2022/04/09 08:30:23;;;;;;;1.27;0.85;;;;;;;21.11;34.89;100755.47;5052403;28;20040;-70
2022/04/09 08:32:50;;;;;;;3.05;1.25;;;;;;;21.08;34.94;100761.16;5078169;28;20349;-70
2022/04/09 08:35:16;;;;;;;1.63;1.00;;;;;;;21.11;34.72;100767.88;5046225;28;20758;-69
2022/04/09 08:37:42;;;;;;;1.17;1.00;;;;;;;21.44;34.12;100768.22;5082171;28;20043;-70
2022/04/09 08:40:14;;;;;;;5.15;1.50;;;;;;;21.82;33.47;100770.53;5038795;28;20425;-70
2022/04/09 08:42:39;;;;;;;2.08;0.95;;;;;;;22.05;33.27;100773.75;5082434;28;20390;-70
2022/04/09 08:45:05;;;;;;;2.75;1.00;;;;;;;22.12;33.09;100785.22;5075717;28;20039;-70
2022/04/09 08:47:33;;;;;;;1.15;0.85;;;;;;;22.13;32.86;100781.56;5052636;28;20044;-69
2022/04/09 08:49:59;;;;;;;2.25;0.90;;;;;;;22.08;32.78;100769.88;5080134;28;20032;-69
2022/04/09 08:52:25;;;;;;;2.58;0.73;;;;;;;22.09;32.88;100788.28;5048447;28;20763;-70
2022/04/09 08:54:51;;;;;;;1.20;0.88;;;;;;;22.00;33.07;100786.75;5083519;28;20044;-69
2022/04/09 08:57:16;;;;;;;1.77;0.82;;;;;;;22.02;32.81;100793.50;5031321;28;20062;-69
2022/04/09 08:59:42;;;;;;;1.98;1.08;;;;;;;22.01;33.08;100788.38;5078407;28;20833;-70
2022/04/09 09:02:08;;;;;;;1.90;0.90;;;;;;;21.92;32.76;100781.63;5049517;28;20671;-67
2022/04/09 09:04:34;;;;;;;3.40;1.13;;;;;;;21.96;32.96;100790.81;5082939;28;20475;-70
2022/04/09 09:07:43;;;;;;;2.90;0.93;;;;;;;21.81;33.12;100803.34;5052021;28;20040;-70
2022/04/09 09:10:15;;;;;;;3.20;1.05;;;;;;;21.59;33.60;100790.16;5048741;28;20121;-69
2022/04/09 09:12:41;;;;;;;3.08;1.00;;;;;;;21.53;33.76;100820.03;5058356;28;20028;-69
2022/04/09 09:15:07;;;;;;;1.77;1.08;;;;;;;21.41;33.90;100838.28;5077701;28;20097;-69
2022/04/09 09:17:33;;;;;;;2.63;0.77;;;;;;;21.29;34.12;100837.16;5044463;28;20131;-69
2022/04/09 09:19:59;;;;;;;2.00;0.88;;;;;;;21.29;34.06;100831.84;5080868;28;20056;-69
2022/04/09 09:22:38;;;;;;;3.00;1.33;;;;;;;21.23;34.20;100843.19;5053613;28;20051;-69
2022/04/09 09:25:06;;;;;;;1.10;1.00;;;;;;;21.15;34.54;100853.06;5077123;28;20367;-69
2022/04/09 09:27:31;;;;;;;3.95;1.25;;;;;;;21.21;34.36;100850.50;5045673;28;20028;-69
2022/04/09 09:29:57;;;;;;;3.17;1.02;;;;;;;21.17;34.29;100857.16;5082755;28;20098;-69
2022/04/09 09:32:28;;;;;;;3.00;1.00;;;;;;;21.11;34.16;100849.97;5048609;28;20036;-69
2022/04/09 09:34:59;;;;;;;2.85;1.08;;;;;;;21.10;34.60;100850.97;5070753;28;20823;-70
2022/04/09 09:37:28;;;;;;;1.15;0.68;;;;;;;21.10;34.64;100849.16;5046038;28;20040;-69
2022/04/09 09:39:54;;;;;;;4.10;1.20;;;;;;;21.04;34.37;100852.56;5075733;28;20098;-70
2022/04/09 09:42:21;;;;;;;2.10;1.23;;;;;;;21.21;34.25;100852.31;5039558;28;20079;-70
2022/04/09 09:44:48;;;;;;;2.67;1.05;;;;;;;21.73;33.54;100859.97;5076813;28;20032;-70
2022/04/09 09:47:17;;;;;;;1.73;0.77;;;;;;;22.10;32.83;100842.94;5049603;28;20040;-69
2022/04/09 09:49:47;;;;;;;1.75;0.93;;;;;;;22.34;32.66;100843.50;5078439;28;20044;-69
2022/04/09 09:52:13;;;;;;;2.92;0.93;;;;;;;22.35;32.64;100851.25;5051023;28;20032;-69
2022/04/09 09:55:06;;;;;;;1.20;0.80;;;;;;;22.27;32.54;100843.47;5079435;28;20090;-69
2022/04/09 09:57:33;;;;;;;2.53;1.30;;;;;;;22.22;32.59;100856.47;5051263;28;20876;-69
2022/04/09 10:00:02;;;;;;;3.22;1.05;;;;;;;22.13;32.78;100845.22;5078997;28;20485;-69
2022/04/09 10:02:32;;;;;;;2.03;0.90;;;;;;;22.10;32.71;100887.22;5047191;28;20173;-69
2022/04/09 10:04:58;;;;;;;1.08;0.90;;;;;;;22.05;32.73;100892.25;5078958;28;20028;-69
2022/04/09 10:07:25;;;;;;;2.47;1.00;;;;;;;22.07;32.91;100901.66;5046885;28;20750;-69
2022/04/09 10:09:53;;;;;;;2.97;1.02;;;;;;;21.97;32.68;100890.56;5081190;28;20046;-69
2022/04/09 10:12:24;;;;;;;2.50;1.08;;;;;;;21.80;33.30;100881.22;5050002;28;20036;-69
2022/04/09 10:14:54;;;;;;;3.30;1.08;;;;;;;21.70;33.23;100890.31;5077510;28;20040;-69
2022/04/09 10:17:21;;;;;;;2.40;1.30;;;;;;;21.56;33.72;100895.69;5052494;28;20036;-69
2022/04/09 10:19:55;;;;;;;2.05;0.95;;;;;;;21.45;33.93;100898.84;5082368;28;20035;-69
2022/04/09 10:22:27;;;;;;;3.03;1.23;;;;;;;21.38;33.99;100896.13;5045251;28;20046;-69
2022/04/09 10:24:55;;;;;;;1.95;0.80;;;;;;;21.32;34.12;100910.09;5080576;28;20043;-69
2022/04/09 10:27:40;;;;;;;2.33;1.23;;;;;;;21.31;34.03;100917.25;5048462;28;20044;-69
2022/04/09 10:30:14;;;;;;;0.93;0.60;;;;;;;21.29;34.20;100908.66;5079210;28;20044;-69
2022/04/09 10:32:42;;;;;;;2.40;1.00;;;;;;;21.25;34.23;100910.06;5048019;28;20036;-69
2022/04/09 10:35:28;;;;;;;2.22;0.95;;;;;;;21.24;34.01;100928.75;5078215;28;20499;-69
2022/04/09 10:38:16;;;;;;;1.17;0.52;;;;;;;21.20;34.15;100912.41;5048983;28;20043;-69
2022/04/09 10:40:50;;;;;;;1.40;0.88;;;;;;;21.22;34.15;100922.81;5071120;28;20043;-69
2022/04/09 10:43:22;;;;;;;1.20;0.57;;;;;;;21.21;34.23;100918.53;5026049;28;20039;-69
2022/04/09 10:46:06;;;;;;;2.05;0.73;;;;;;;21.20;34.31;100920.34;5074609;28;20041;-69
2022/04/09 10:48:35;;;;;;;2.05;1.05;;;;;;;21.26;33.79;100935.53;5047813;28;20043;-69
2022/04/09 10:51:02;;;;;;;1.13;0.88;;;;;;;21.80;33.21;100926.28;5063471;28;20223;-69
2022/04/09 10:53:30;;;;;;;2.08;0.80;;;;;;;22.21;32.36;100924.63;5046977;28;20162;-69
2022/04/09 10:56:24;;;;;;;1.73;0.80;;;;;;;22.33;32.18;100926.75;5076257;28;20424;-69
2022/04/09 10:59:28;;;;;;;3.10;0.80;;;;;;;22.34;32.32;100941.66;5045999;28;20024;-69
2022/04/09 11:01:54;;;;;;;1.42;0.80;;;;;;;22.23;32.28;100935.84;5056865;28;20050;-69
2022/04/09 11:04:28;;;;;;;0.80;0.50;;;;;;;22.19;32.21;100950.53;5064001;28;20036;-69
2022/04/09 11:07:02;;;;;;;2.25;0.63;;;;;;;22.15;32.25;100951.09;5047449;28;20051;-68
2022/04/09 11:09:58;;;;;;;1.52;0.70;;;;;;;22.14;32.58;100938.84;5080705;28;20684;-69
2022/04/09 11:12:39;;;;;;;2.22;0.90;;;;;;;22.03;32.58;100938.31;5049476;28;20040;-68
2022/04/09 11:15:07;;;;;;;2.08;1.00;;;;;;;21.97;32.84;100947.03;5073841;28;20032;-69
2022/04/09 11:17:45;;;;;;;2.03;0.90;;;;;;;21.78;33.25;100942.38;5048313;28;20450;-69
2022/04/09 11:20:12;;;;;;;1.52;0.73;;;;;;;21.61;33.43;100938.34;5079371;28;20474;-68
2022/04/09 11:22:43;;;;;;;1.50;0.68;;;;;;;21.52;33.48;100948.22;5044900;28;20047;-69
2022/04/09 11:25:30;;;;;;;1.23;0.50;;;;;;;21.45;33.84;100944.69;5076238;28;20385;-69
2022/04/09 11:28:07;;;;;;;1.30;0.82;;;;;;;21.38;33.98;100946.47;5051783;28;20040;-69
2022/04/09 11:30:33;;;;;;;2.13;0.60;;;;;;;21.35;33.87;100941.50;5082145;28;20270;-70
2022/04/09 11:32:58;;;;;;;1.50;0.80;;;;;;;21.31;33.98;100942.91;5050215;28;20040;-69